INDIA METEOROLOGICAL DEPARTMENT, R.M.C. NEW DELHI
Airport METARs
Date : 24-02-2020
Sl. # Airport METAR
1 Allahabad VEAB 240100Z VRB02KT 0000 FG SKY OBS 17/17 Q1014 NOSIG=
2 Amritsar VIAR 240130Z 00000KT 1500 R34/2000 BR FEW100 11/09 Q1016 NOSIG=
3 Bhuntar VIBR 240130Z 00000KT 5000 BR NSC 09/02 Q1020=
4 Delhi VIDP 240130Z 00000KT 1500 R28/P2000 R29/P2000 BR FEW100 15/14 Q1015 NOSIG=
5 Dehradun VIDN 240030Z 00000KT 3000 BR NSC 09/08 Q1015=
6 Gaggal VIGG 240100Z 14003KT 6000 FEW080 08/08 Q1019=
7 Jaipur VIJP 240130Z 00000KT 2500 BR SCT100 16/14 Q1016 NOSIG=
8 Lucknow VILK 240130Z VRB02KT 1500 R27/2000 RMID/2000 R09/2000 BR FEW020 SCT100 17/15 Q1014 NOSIG=
9 Udaipur VAUD 240130Z 04001KT 1800 HZ NSC 12/11 Q1017 TEMPO 1500 HZ=
10 Varanasi VEBN 240130Z 25004KT 0050 FG VV/// 16/15 Q1013 NOSIG=
11 Leh VILH 240100Z 00000KT 6000 SKC -9/-1 Q1027 NOSIG=
12 Sri Nagar VISR 240100Z 20003KT 6000 SCT200 04/-3 Q1022 NOSIG=
13 Jammu VIJU 240100Z VRB02KT 5000 BR SKC 14/12 Q1015 TEMPO 4000 M=
14 Jodhpur VIJO 240100Z 04003KT 5000 BR SKC 15/11 Q1016 BECMG 4000=
15 Jaisalmer VIJR 240100Z VRB01KT 6000 SKC 15/09 Q1016 NOSIG=
16 Gorakhpur VEGK 240030Z VRB02KT 1000 BR SCT090 16/16 Q1013 NOSIG=
17 Agra VIAG 240100Z 30003KT 2000 BR SCT250 14/12 Q1015 BECMG 1500=
18 Chandigarh VICG 240100Z VRB02KT 3000 BR SCT250 13/12 Q1016 TEMPO 2000=

 

--- End of List ---